Time;durP1;ratioP1;P1;durP2;ratioP2;P2;SDS_P1;SDS_P2;PMS_P1;PMS_P2;Temp;Humidity;BMP_temperature;BMP_pressure;BME280_temperature;BME280_humidity;BME280_pressure;Samples;Min_cycle;Max_cycle;Signal;HPM_P1;HPM_P2
2022/04/18 00:01:04;;;;;;;3.60;2.40;;;;;;;-0.78;67.32;95742.52;1787494;80;21015;-73
2022/04/18 00:03:30;;;;;;;4.03;2.60;;;;;;;-0.94;69.09;95747.28;1795522;80;21433;-73
2022/04/18 00:05:56;;;;;;;4.03;2.50;;;;;;;-1.05;69.24;95747.41;1795618;80;20994;-74
2022/04/18 00:08:23;;;;;;;3.53;2.47;;;;;;;-1.12;68.97;95745.05;1795307;80;21018;-74
2022/04/18 00:10:50;;;;;;;3.73;2.60;;;;;;;-1.07;69.12;95737.84;1795230;80;21087;-73
2022/04/18 00:13:16;;;;;;;4.53;2.37;;;;;;;-0.98;68.67;95738.98;1795654;80;20987;-73
2022/04/18 00:15:43;;;;;;;3.20;2.30;;;;;;;-0.87;68.28;95737.97;1795147;80;21008;-73
2022/04/18 00:18:09;;;;;;;3.80;2.17;;;;;;;-0.83;67.91;95729.86;1795468;80;20974;-73
2022/04/18 00:20:36;;;;;;;4.57;2.10;;;;;;;-0.93;67.69;95724.87;1795295;80;21033;-74
2022/04/18 00:23:03;;;;;;;4.13;2.87;;;;;;;-0.94;67.41;95721.80;1795188;80;21038;-73
2022/04/18 00:25:30;;;;;;;3.03;2.50;;;;;;;-1.01;67.29;95720.73;1795292;80;21071;-73
2022/04/18 00:27:56;;;;;;;3.33;2.30;;;;;;;-1.15;67.83;95707.85;1795035;80;21078;-74
2022/04/18 00:30:23;;;;;;;3.53;2.63;;;;;;;-1.35;68.07;95717.64;1795486;80;20986;-74
2022/04/18 00:32:49;;;;;;;4.23;2.87;;;;;;;-1.39;69.26;95714.48;1795441;80;21005;-74
2022/04/18 00:35:15;;;;;;;4.37;2.50;;;;;;;-1.45;68.60;95719.07;1795544;80;20951;-74
2022/04/18 00:37:42;;;;;;;3.60;2.53;;;;;;;-1.41;68.80;95710.58;1795313;80;21441;-74
2022/04/18 00:40:11;;;;;;;9.73;3.50;;;;;;;-1.33;68.90;95710.80;1795461;80;21026;-74
2022/04/18 00:42:44;;;;;;;3.93;2.70;;;;;;;-1.24;68.56;95703.70;1795202;80;21013;-74
2022/04/18 00:45:11;;;;;;;3.47;2.13;;;;;;;-1.16;68.34;95695.72;1795622;80;21010;-74
2022/04/18 00:47:37;;;;;;;3.43;2.80;;;;;;;-1.26;69.46;95699.79;1795201;80;21492;-74
2022/04/18 00:50:05;;;;;;;5.90;3.03;;;;;;;-1.33;69.40;95695.27;1795481;80;20975;-74
2022/04/18 00:52:34;;;;;;;4.27;2.53;;;;;;;-1.38;68.67;95700.31;1795228;80;21499;-74
2022/04/18 00:55:02;;;;;;;5.50;3.20;;;;;;;-1.35;68.54;95692.63;1795508;80;20958;-74
2022/04/18 00:57:30;;;;;;;4.53;3.07;;;;;;;-1.46;68.58;95694.04;1795282;80;21049;-74
2022/04/18 00:59:57;;;;;;;6.13;3.57;;;;;;;-1.51;69.46;95694.33;1795612;80;21006;-74
2022/04/18 01:02:23;;;;;;;4.03;2.50;;;;;;;-1.49;69.72;95689.17;1790399;80;21039;-74
2022/04/18 01:04:51;;;;;;;3.80;2.87;;;;;;;-1.50;69.01;95687.01;1787131;80;21034;-74
2022/04/18 01:07:18;;;;;;;4.10;2.67;;;;;;;-1.51;69.00;95685.27;1786914;80;21007;-74
2022/04/18 01:09:45;;;;;;;2.80;2.10;;;;;;;-1.55;68.61;95687.30;1786782;80;21127;-74
2022/04/18 01:12:12;;;;;;;4.23;3.00;;;;;;;-1.52;68.96;95680.91;1754493;80;20971;-74
2022/04/18 01:14:49;;;;;;;4.70;3.00;;;;;;;-1.53;68.60;95685.20;1689288;84;21106;-74
2022/04/18 01:17:20;;;;;;;5.47;3.03;;;;;;;-1.60;68.39;95680.69;1784743;80;21027;-74
2022/04/18 01:19:58;;;;;;;6.13;3.50;;;;;;;-1.61;69.55;95677.65;1753468;80;21074;-74
2022/04/18 01:22:28;;;;;;;6.27;3.60;;;;;;;-1.73;70.32;95676.41;1783363;80;21050;-74
2022/04/18 01:30:41;;;;;;;5.73;3.20;;;;;;;-1.82;69.77;95669.23;1786794;80;21046;-74
2022/04/18 01:33:09;;;;;;;5.00;2.77;;;;;;;-1.83;69.52;95663.20;1787174;80;21074;-75
2022/04/18 01:35:36;;;;;;;4.20;2.23;;;;;;;-1.87;69.46;95660.05;1787183;80;21463;-75
2022/04/18 01:38:07;;;;;;;3.93;2.87;;;;;;;-1.90;69.54;95657.80;1787000;80;21018;-74
2022/04/18 01:40:33;;;;;;;3.27;2.17;;;;;;;-1.97;69.55;95658.92;1786953;80;21011;-75
2022/04/18 01:43:00;;;;;;;5.40;3.17;;;;;;;-2.08;70.92;95662.86;1787185;80;21062;-75
2022/04/18 01:45:27;;;;;;;4.77;3.10;;;;;;;-2.18;72.10;95659.53;1786688;80;20991;-75
2022/04/18 01:48:02;;;;;;;5.70;2.83;;;;;;;-2.16;71.63;95657.88;1785493;80;20995;-74
2022/04/18 01:50:28;;;;;;;4.07;2.90;;;;;;;-2.16;71.57;95654.42;1787261;80;21500;-73
2022/04/18 01:52:55;;;;;;;5.77;3.60;;;;;;;-2.13;71.21;95653.22;1786989;80;20978;-74
2022/04/18 01:55:22;;;;;;;4.77;3.13;;;;;;;-2.15;71.86;95646.70;1787242;80;20979;-74
2022/04/18 01:57:50;;;;;;;4.60;2.50;;;;;;;-2.14;71.78;95638.13;1786278;80;20967;-74
2022/04/18 02:00:17;;;;;;;4.17;2.70;;;;;;;-2.07;72.06;95636.59;1786822;80;21125;-74
2022/04/18 02:02:44;;;;;;;4.07;2.53;;;;;;;-2.10;71.90;95628.33;1787080;80;20983;-74
2022/04/18 02:05:11;;;;;;;4.60;2.80;;;;;;;-2.01;71.58;95622.16;1795867;80;20994;-74
2022/04/18 02:07:38;;;;;;;3.77;2.43;;;;;;;-2.01;71.05;95621.28;1795268;80;21026;-74
2022/04/18 02:10:07;;;;;;;2.63;2.20;;;;;;;-1.91;71.18;95620.72;1795763;80;21007;-74
2022/04/18 02:12:33;;;;;;;5.63;3.90;;;;;;;-1.78;70.97;95612.90;1795439;80;21078;-74
2022/04/18 02:15:02;;;;;;;4.00;2.73;;;;;;;-1.72;70.50;95610.48;1795862;80;21034;-74
2022/04/18 02:17:30;;;;;;;4.70;3.17;;;;;;;-1.71;69.90;95614.84;1766629;80;21010;-74
2022/04/18 02:19:57;;;;;;;3.37;2.60;;;;;;;-1.90;70.71;95600.48;1795657;80;21003;-74
2022/04/18 02:22:24;;;;;;;3.80;2.63;;;;;;;-2.09;70.61;95603.34;1795690;80;21010;-74
2022/04/18 02:24:51;;;;;;;2.77;2.00;;;;;;;-2.26;72.11;95601.15;1795719;80;21014;-74
2022/04/18 02:27:18;;;;;;;2.87;2.17;;;;;;;-2.20;71.52;95605.62;1795520;80;20994;-75
2022/04/18 02:29:46;;;;;;;11.33;3.87;;;;;;;-2.26;70.97;95601.57;1795820;80;21042;-74
2022/04/18 02:34:58;;;;;;;2.60;2.10;;;;;;;-2.37;71.48;95598.63;1795837;80;20978;-75
2022/04/18 02:37:25;;;;;;;3.47;2.20;;;;;;;-2.39;71.32;95593.86;1795740;80;21026;-75
2022/04/18 02:39:54;;;;;;;2.97;2.30;;;;;;;-2.49;71.47;95591.82;1795761;80;20990;-75
2022/04/18 02:42:21;;;;;;;3.67;2.60;;;;;;;-2.49;71.83;95591.40;1795761;80;21011;-75
2022/04/18 02:44:49;;;;;;;6.10;3.50;;;;;;;-2.51;72.45;95594.34;1795861;80;21026;-75
2022/04/18 02:47:17;;;;;;;8.27;4.30;;;;;;;-2.47;73.17;95591.04;1795767;80;21472;-74
2022/04/18 02:49:44;;;;;;;8.10;4.50;;;;;;;-2.46;73.44;95593.20;1795573;80;21042;-74
2022/04/18 02:52:11;;;;;;;2.73;2.23;;;;;;;-2.40;73.00;95587.78;1766838;80;21026;-75
2022/04/18 02:54:38;;;;;;;4.03;2.60;;;;;;;-2.42;72.51;95588.57;1795199;80;21473;-74
2022/04/18 02:57:05;;;;;;;2.77;1.80;;;;;;;-2.34;72.40;95588.41;1795474;80;21106;-75
2022/04/18 02:59:32;;;;;;;3.70;2.37;;;;;;;-2.28;72.10;95580.84;1795785;80;21046;-75
2022/04/18 03:01:58;;;;;;;1.97;1.77;;;;;;;-2.14;72.03;95579.97;1794444;80;21006;-75
2022/04/18 03:04:25;;;;;;;4.57;2.13;;;;;;;-2.18;71.52;95582.86;1787251;80;21007;-75
2022/04/18 03:06:51;;;;;;;2.97;2.00;;;;;;;-2.40;71.90;95582.62;1787200;80;20999;-75
2022/04/18 03:09:19;;;;;;;2.07;1.70;;;;;;;-2.45;72.04;95569.97;1786454;80;21034;-75
2022/04/18 03:11:46;;;;;;;3.20;2.00;;;;;;;-2.41;72.33;95577.42;1754534;80;21028;-75
2022/04/18 03:14:12;;;;;;;4.00;2.10;;;;;;;-2.43;72.34;95579.95;1787317;80;21046;-75
2022/04/18 03:16:41;;;;;;;2.33;2.00;;;;;;;-2.49;71.98;95572.02;1785639;80;20963;-75
2022/04/18 03:19:07;;;;;;;2.60;2.17;;;;;;;-2.42;72.06;95567.52;1786930;80;21046;-75
2022/04/18 03:21:36;;;;;;;1.50;1.40;;;;;;;-2.29;72.07;95575.64;1786926;80;20983;-75
2022/04/18 03:24:05;;;;;;;1.67;1.53;;;;;;;-2.20;71.46;95575.89;1786926;80;21023;-75
2022/04/18 03:26:39;;;;;;;3.07;1.50;;;;;;;-2.28;70.78;95571.79;1786634;80;21604;-75
2022/04/18 03:29:10;;;;;;;1.47;1.20;;;;;;;-2.32;70.88;95567.34;1777338;80;21460;-75
2022/04/18 03:31:37;;;;;;;2.83;1.70;;;;;;;-2.48;70.50;95571.18;1786949;80;21505;-75
2022/04/18 03:34:04;;;;;;;1.80;1.30;;;;;;;-2.58;71.51;95569.14;1787073;80;21106;-75
2022/04/18 03:42:02;;;;;;;2.20;1.60;;;;;;;-2.85;74.03;95571.72;1787182;80;21007;-75
2022/04/18 03:44:30;;;;;;;2.30;1.53;;;;;;;-2.92;73.64;95571.09;1786829;80;21492;-75
2022/04/18 03:46:58;;;;;;;2.03;1.30;;;;;;;-3.01;73.75;95569.49;1787099;80;20992;-75
2022/04/18 03:49:25;;;;;;;2.17;1.43;;;;;;;-2.97;73.58;95563.58;1786816;80;21082;-75
2022/04/18 03:51:53;;;;;;;1.50;1.23;;;;;;;-2.89;73.95;95563.44;1786662;80;21010;-74
2022/04/18 03:54:20;;;;;;;1.50;1.10;;;;;;;-2.93;73.59;95561.16;1787000;80;21019;-74
2022/04/18 03:56:47;;;;;;;2.90;1.57;;;;;;;-2.94;73.37;95563.28;1786793;80;21019;-75
2022/04/18 03:59:16;;;;;;;3.00;1.90;;;;;;;-2.99;74.34;95560.97;1786800;80;21055;-75
2022/04/18 04:01:45;;;;;;;1.23;1.13;;;;;;;-2.88;73.81;95556.14;1774348;80;20994;-75
2022/04/18 04:04:12;;;;;;;1.70;1.30;;;;;;;-2.78;73.86;95553.44;1794725;80;21017;-75
2022/04/18 04:06:39;;;;;;;2.33;1.27;;;;;;;-2.80;73.78;95555.09;1795334;80;21560;-75
2022/04/18 04:09:06;;;;;;;2.03;1.40;;;;;;;-2.85;73.25;95548.09;1795084;80;21011;-75
2022/04/18 04:11:34;;;;;;;1.60;1.30;;;;;;;-2.80;74.14;95553.38;1795740;80;20986;-75
2022/04/18 04:14:02;;;;;;;4.07;2.37;;;;;;;-2.65;74.22;95547.41;1795504;80;21082;-75
2022/04/18 04:16:30;;;;;;;2.00;1.40;;;;;;;-2.60;74.97;95547.55;1795602;80;20982;-75
2022/04/18 04:18:57;;;;;;;3.17;1.17;;;;;;;-2.55;74.53;95543.82;1795058;80;21086;-75
2022/04/18 04:21:23;;;;;;;2.43;1.30;;;;;;;-2.48;73.83;95542.77;1795688;80;21014;-75
2022/04/18 04:23:52;;;;;;;5.77;3.37;;;;;;;-2.44;73.35;95543.75;1795557;80;20994;-75
2022/04/18 04:26:30;;;;;;;11.23;5.27;;;;;;;-2.43;75.36;95542.91;1794732;80;20999;-75
2022/04/18 04:28:57;;;;;;;12.10;6.00;;;;;;;-2.26;74.97;95539.12;1795097;80;20979;-75
2022/04/18 04:31:25;;;;;;;9.30;5.80;;;;;;;-2.14;74.77;95541.59;1793261;80;21464;-75
2022/04/18 04:33:53;;;;;;;11.13;6.40;;;;;;;-2.11;74.39;95545.58;1794983;80;21002;-75
2022/04/18 04:36:20;;;;;;;12.00;6.53;;;;;;;-2.16;75.31;95536.81;1795618;80;20954;-75
2022/04/18 04:38:46;;;;;;;13.33;7.40;;;;;;;-2.02;74.88;95531.61;1795026;80;21071;-75
2022/04/18 04:41:16;;;;;;;14.03;7.70;;;;;;;-1.94;74.73;95533.11;1793141;80;20967;-75
2022/04/18 04:43:44;;;;;;;10.40;6.10;;;;;;;-1.87;74.84;95533.33;1794797;80;21093;-75
2022/04/18 04:46:12;;;;;;;13.37;7.60;;;;;;;-1.73;74.35;95533.72;1795444;80;20995;-74
2022/04/18 04:48:41;;;;;;;19.37;9.37;;;;;;;-1.62;73.75;95522.36;1794405;80;21026;-75
2022/04/18 04:51:09;;;;;;;21.97;12.60;;;;;;;-1.48;73.89;95523.61;1794988;80;20995;-75
2022/04/18 04:53:36;;;;;;;21.70;11.63;;;;;;;-1.39;73.93;95522.97;1795142;80;20999;-75
2022/04/18 04:56:03;;;;;;;14.27;9.40;;;;;;;-1.37;73.67;95527.34;1759370;80;21551;-75
2022/04/18 04:58:32;;;;;;;12.80;7.83;;;;;;;-1.37;73.64;95527.34;1795394;80;21071;-75
2022/04/18 05:01:03;;;;;;;11.03;7.13;;;;;;;-1.35;73.59;95521.80;1795487;80;21520;-74
2022/04/18 05:03:31;;;;;;;11.10;6.80;;;;;;;-1.18;72.90;95518.34;1794968;80;21077;-75
2022/04/18 05:05:58;;;;;;;10.20;6.40;;;;;;;-0.99;72.68;95529.16;1795434;80;21033;-75
2022/04/18 05:08:32;;;;;;;7.73;5.50;;;;;;;-0.83;71.95;95517.44;1794752;80;21006;-75
2022/04/18 05:11:01;;;;;;;10.03;6.00;;;;;;;-0.72;71.62;95523.77;1764275;80;21022;-76
2022/04/18 05:13:29;;;;;;;11.50;6.83;;;;;;;-0.68;71.85;95508.73;1794325;80;21137;-75
2022/04/18 05:15:56;;;;;;;9.53;6.57;;;;;;;-0.63;72.13;95511.03;1795493;80;21025;-76
2022/04/18 05:18:41;;;;;;;9.37;6.73;;;;;;;-0.62;72.24;95512.77;1795620;80;21046;-75
2022/04/18 05:21:09;;;;;;;9.87;6.63;;;;;;;-0.50;72.24;95518.23;1764582;80;20998;-75
2022/04/18 05:23:36;;;;;;;8.40;5.47;;;;;;;-0.35;71.83;95511.22;1790530;80;20975;-72
2022/04/18 05:26:02;;;;;;;10.90;6.77;;;;;;;-0.26;70.83;95511.83;1795372;80;21011;-74
2022/04/18 05:28:30;;;;;;;11.23;6.13;;;;;;;-0.20;71.09;95508.48;1795614;80;21047;-74
2022/04/18 05:30:59;;;;;;;7.57;5.20;;;;;;;-0.08;70.71;95507.45;1795300;80;21604;-74
2022/04/18 05:33:26;;;;;;;9.90;6.57;;;;;;;0.09;70.71;95500.89;1795350;80;21022;-74
2022/04/18 05:36:12;;;;;;;11.27;6.43;;;;;;;0.21;70.85;95505.46;1794559;80;20994;-74
2022/04/18 05:38:39;;;;;;;12.33;7.03;;;;;;;0.33;71.08;95505.70;1795492;80;21058;-74
2022/04/18 05:41:07;;;;;;;9.30;5.83;;;;;;;0.47;70.06;95501.19;1794790;80;21019;-75
2022/04/18 05:43:34;;;;;;;10.93;6.70;;;;;;;0.60;69.93;95504.02;1795576;80;21421;-74
2022/04/18 05:46:01;;;;;;;11.87;6.40;;;;;;;0.72;69.54;95498.18;1795259;80;21050;-74
2022/04/18 05:48:27;;;;;;;11.37;6.40;;;;;;;0.77;68.94;95496.53;1795624;80;21022;-75
2022/04/18 05:50:55;;;;;;;13.03;5.70;;;;;;;0.91;68.73;95499.78;1795125;80;21014;-74
2022/04/18 05:53:26;;;;;;;6.87;5.00;;;;;;;1.01;67.96;95496.52;1794197;80;21484;-75
2022/04/18 05:56:05;;;;;;;6.60;4.10;;;;;;;1.17;67.41;95492.00;1795608;80;20983;-75
2022/04/18 05:58:42;;;;;;;4.53;3.30;;;;;;;1.33;66.74;95485.74;1794058;80;21070;-75
2022/04/18 06:01:16;;;;;;;5.13;2.47;;;;;;;1.46;66.19;95487.27;1746647;80;20962;-74
2022/04/18 06:03:43;;;;;;;3.90;2.83;;;;;;;1.56;64.14;95486.08;1795511;80;21527;-75
2022/04/18 06:06:10;;;;;;;20.93;13.73;;;;;;;1.69;64.54;95486.72;1795515;80;21015;-75
2022/04/18 06:08:37;;;;;;;85.07;63.43;;;;;;;1.84;64.16;95484.72;1795581;80;20983;-75
2022/04/18 06:11:08;;;;;;;34.13;21.50;;;;;;;1.92;64.60;95483.13;1795009;80;21046;-74
2022/04/18 06:13:36;;;;;;;15.40;3.87;;;;;;;2.04;64.61;95486.28;1792280;80;21046;-75
2022/04/18 06:16:05;;;;;;;25.30;4.87;;;;;;;2.22;64.19;95486.92;1795451;80;21030;-74
2022/04/18 06:18:33;;;;;;;18.50;4.57;;;;;;;2.40;63.89;95488.46;1795382;80;21520;-73
2022/04/18 06:21:03;;;;;;;15.07;3.97;;;;;;;2.53;62.84;95481.66;1795277;80;20998;-74
2022/04/18 06:23:31;;;;;;;10.93;3.17;;;;;;;2.66;62.65;95475.70;1764541;80;21007;-74
2022/04/18 06:25:59;;;;;;;13.03;3.10;;;;;;;2.79;61.13;95473.65;1766794;80;21070;-74
2022/04/18 06:28:26;;;;;;;6.03;1.87;;;;;;;2.96;61.66;95475.11;1795438;80;20987;-74
2022/04/18 06:30:52;;;;;;;3.70;2.33;;;;;;;3.11;57.29;95476.11;1795626;80;21034;-74
2022/04/18 06:33:23;;;;;;;2.03;1.57;;;;;;;3.24;58.80;95467.08;1770516;80;21086;-74
2022/04/18 06:35:49;;;;;;;2.87;1.27;;;;;;;3.37;56.43;95471.95;1795428;80;21026;-74
2022/04/18 06:38:16;;;;;;;1.63;1.10;;;;;;;3.46;54.77;95472.03;1795605;80;21505;-73
2022/04/18 06:40:53;;;;;;;1.77;1.20;;;;;;;3.59;56.26;95476.89;1794123;80;21505;-73
2022/04/18 06:43:20;;;;;;;2.53;1.33;;;;;;;3.73;55.11;95473.48;1795477;80;20967;-73
2022/04/18 06:45:49;;;;;;;2.77;1.30;;;;;;;3.78;51.88;95468.76;1795322;80;21499;-73
2022/04/18 06:48:15;;;;;;;3.03;1.40;;;;;;;3.87;52.54;95467.92;1795537;80;20982;-73
2022/04/18 06:50:45;;;;;;;1.43;1.30;;;;;;;3.92;52.49;95461.42;1791083;80;21041;-73
2022/04/18 06:53:20;;;;;;;6.63;1.60;;;;;;;4.02;51.75;95468.44;1789573;80;21472;-73
2022/04/18 06:58:52;;;;;;;3.87;1.10;;;;;;;4.21;52.21;95465.45;1792492;80;21536;-72
2022/04/18 07:01:20;;;;;;;8.67;1.67;;;;;;;4.32;50.86;95463.77;1795371;80;21006;-73
2022/04/18 07:03:47;;;;;;;1.70;1.07;;;;;;;4.31;49.02;95457.68;1795248;80;21449;-72
2022/04/18 07:06:13;;;;;;;1.53;1.17;;;;;;;4.47;51.13;95466.42;1795582;80;21027;-72
2022/04/18 07:08:40;;;;;;;3.13;1.33;;;;;;;4.56;50.39;95457.72;1795582;80;21417;-72
2022/04/18 07:11:08;;;;;;;2.00;1.23;;;;;;;4.69;50.62;95457.34;1791841;80;21575;-72
2022/04/18 07:13:35;;;;;;;3.23;1.57;;;;;;;4.77;49.83;95459.09;1764154;80;21038;-72
2022/04/18 07:16:02;;;;;;;2.30;1.57;;;;;;;4.85;49.72;95455.17;1795469;80;20959;-72
2022/04/18 07:18:29;;;;;;;1.87;1.30;;;;;;;4.89;49.44;95450.41;1795428;80;21026;-73
2022/04/18 07:20:56;;;;;;;1.83;1.50;;;;;;;4.93;51.24;95454.74;1764526;80;20998;-73
2022/04/18 07:23:22;;;;;;;2.77;1.80;;;;;;;4.97;50.04;95449.96;1795184;80;21476;-73
2022/04/18 07:25:51;;;;;;;1.60;1.40;;;;;;;5.06;49.41;95442.98;1794797;80;21540;-73
2022/04/18 07:28:19;;;;;;;1.80;1.43;;;;;;;5.13;49.43;95444.30;1794025;80;21557;-73
2022/04/18 07:30:46;;;;;;;2.67;1.70;;;;;;;5.25;49.53;95441.26;1795539;80;20998;-73
2022/04/18 07:33:14;;;;;;;1.50;1.40;;;;;;;5.34;49.50;95437.30;1795501;80;20986;-73
2022/04/18 07:35:43;;;;;;;2.57;1.50;;;;;;;5.49;47.44;95431.19;1795042;80;21074;-73
2022/04/18 07:41:04;;;;;;;3.13;1.60;;;;;;;5.73;46.38;95434.20;1795516;80;20999;-72
2022/04/18 07:43:26;;;;;;;1.30;1.20;;;;;;;5.87;44.64;95423.23;1794151;80;21021;-73
2022/04/18 07:45:52;;;;;;;1.83;1.50;;;;;;;5.91;45.52;95424.98;1795508;80;21501;-72
2022/04/18 07:48:19;;;;;;;3.57;1.47;;;;;;;5.91;45.02;95428.91;1795367;80;21097;-72
2022/04/18 07:53:32;;;;;;;3.00;1.67;;;;;;;5.99;43.95;95421.92;1795428;80;21484;-72
2022/04/18 07:55:58;;;;;;;3.43;1.67;;;;;;;6.18;44.29;95416.19;1795488;80;21007;-72
2022/04/18 07:58:25;;;;;;;2.60;1.60;;;;;;;6.31;43.15;95413.51;1795664;80;21070;-72
2022/04/18 08:00:53;;;;;;;2.73;1.90;;;;;;;6.43;43.08;95407.77;1795447;80;20955;-73
2022/04/18 08:03:20;;;;;;;1.63;1.47;;;;;;;6.41;42.72;95410.83;1794030;80;21098;-72
2022/04/18 08:05:49;;;;;;;2.93;1.80;;;;;;;6.38;43.15;95406.92;1786112;80;21656;-73
2022/04/18 08:08:17;;;;;;;2.67;1.60;;;;;;;6.28;43.14;95408.71;1786393;80;21497;-73
2022/04/18 08:10:43;;;;;;;2.00;1.80;;;;;;;6.47;42.47;95412.09;1787020;80;20964;-73
2022/04/18 08:13:10;;;;;;;1.87;1.40;;;;;;;6.62;42.06;95402.40;1786785;80;21071;-72
2022/04/18 08:15:37;;;;;;;2.20;1.67;;;;;;;6.78;40.58;95401.44;1787060;80;21023;-73
2022/04/18 08:18:05;;;;;;;1.90;1.60;;;;;;;6.90;39.75;95398.72;1786345;80;21011;-73
2022/04/18 08:20:33;;;;;;;1.40;1.20;;;;;;;6.80;39.73;95398.33;1784524;80;20987;-73
2022/04/18 08:23:00;;;;;;;1.90;1.50;;;;;;;6.82;38.69;95395.27;1786931;80;21078;-72
2022/04/18 08:25:45;;;;;;;3.00;1.40;;;;;;;6.97;40.30;95394.73;1786947;80;21540;-72
2022/04/18 08:28:33;;;;;;;1.90;1.30;;;;;;;7.22;42.12;95394.09;1784957;80;21034;-72
2022/04/18 08:31:00;;;;;;;1.50;1.40;;;;;;;7.47;40.10;95394.28;1787267;80;21042;-72
2022/04/18 08:33:45;;;;;;;1.50;1.27;;;;;;;7.70;41.38;95387.48;1787103;80;21022;-72
2022/04/18 08:36:12;;;;;;;1.27;1.17;;;;;;;7.97;39.69;95381.05;1786803;80;21084;-72
2022/04/18 08:38:39;;;;;;;1.93;1.50;;;;;;;7.97;39.16;95381.50;1787275;80;20983;-71
2022/04/18 08:41:12;;;;;;;2.07;1.50;;;;;;;7.64;36.44;95388.87;1783097;80;21055;-72
2022/04/18 08:43:42;;;;;;;1.97;1.67;;;;;;;7.25;36.15;95384.87;1787026;80;20975;-72
2022/04/18 08:46:09;;;;;;;2.70;1.90;;;;;;;7.34;39.19;95380.41;1786893;80;20968;-72
2022/04/18 08:54:10;;;;;;;1.80;1.50;;;;;;;6.85;39.20;95374.25;1786923;80;21031;-72
2022/04/18 08:56:36;;;;;;;2.47;1.50;;;;;;;7.13;41.72;95370.09;1786682;80;21143;-72
2022/04/18 08:59:03;;;;;;;1.40;1.23;;;;;;;7.43;39.01;95368.07;1787063;80;20975;-72
2022/04/18 09:01:30;;;;;;;2.63;1.30;;;;;;;7.41;37.33;95365.90;1786688;80;21103;-72
2022/04/18 09:04:02;;;;;;;2.03;1.20;;;;;;;7.49;34.74;95361.47;1789286;80;21086;-72
2022/04/18 09:06:38;;;;;;;1.57;1.03;;;;;;;7.82;36.70;95355.41;1794349;80;20979;-72
2022/04/18 09:09:28;;;;;;;1.90;0.90;;;;;;;8.33;38.84;95345.98;1795330;80;21034;-72
2022/04/18 09:11:56;;;;;;;2.87;1.77;;;;;;;8.87;37.38;95342.60;1794979;80;21532;-72
2022/04/18 09:14:26;;;;;;;2.50;1.50;;;;;;;9.09;35.55;95339.14;1795091;80;20983;-71
2022/04/18 09:16:53;;;;;;;1.90;1.20;;;;;;;9.31;37.35;95339.20;1795450;80;21030;-72
2022/04/18 09:19:24;;;;;;;1.63;1.53;;;;;;;9.49;35.10;95327.45;1790701;80;21492;-72
2022/04/18 09:22:00;;;;;;;1.33;1.20;;;;;;;9.81;34.34;95328.62;1795392;80;21029;-71
2022/04/18 09:24:32;;;;;;;1.47;1.23;;;;;;;9.92;37.18;95329.25;1795268;80;20997;-72
2022/04/18 09:27:29;;;;;;;19.00;9.57;;;;;;;9.97;36.14;95330.03;1795303;80;21481;-72
2022/04/18 09:30:16;;;;;;;1.97;1.47;;;;;;;9.78;35.19;95331.31;1795364;80;20981;-72
2022/04/18 09:33:02;;;;;;;1.77;1.47;;;;;;;9.24;31.31;95328.34;1795437;80;21071;-72
2022/04/18 09:35:39;;;;;;;1.90;1.25;;;;;;;8.84;33.05;95328.16;1793851;80;21465;-72
2022/04/18 09:38:12;;;;;;;1.83;1.30;;;;;;;8.51;32.96;95326.47;1795367;80;21003;-72
2022/04/18 09:40:37;;;;;;;1.43;1.20;;;;;;;8.32;34.96;95330.25;1771350;80;21037;-72
2022/04/18 09:43:05;;;;;;;1.37;1.27;;;;;;;8.06;35.05;95326.19;1794977;80;21505;-72
2022/04/18 09:45:32;;;;;;;1.50;1.33;;;;;;;7.78;35.38;95334.86;1795483;80;21010;-72
2022/04/18 09:48:03;;;;;;;1.80;1.40;;;;;;;7.41;36.50;95340.96;1795412;80;21045;-72
2022/04/18 09:53:26;;;;;;;1.43;1.23;;;;;;;6.72;42.03;95363.44;1795133;80;20979;-72
2022/04/18 09:55:56;;;;;;;1.63;1.50;;;;;;;6.22;45.07;95376.00;1795325;80;20962;-71
2022/04/18 09:58:24;;;;;;;5.03;1.40;;;;;;;6.01;43.10;95369.55;1795470;80;21003;-71
2022/04/18 10:00:52;;;;;;;1.60;1.17;;;;;;;5.96;43.93;95371.31;1790696;80;21540;-71
2022/04/18 10:03:20;;;;;;;6.67;3.80;;;;;;;5.95;44.24;95368.28;1795394;80;21496;-71
2022/04/18 10:05:49;;;;;;;24.37;12.63;;;;;;;5.98;43.76;95369.13;1795504;80;20998;-71
2022/04/18 10:08:16;;;;;;;8.17;6.40;;;;;;;5.94;43.73;95370.45;1790081;80;21085;-72
2022/04/18 10:10:43;;;;;;;5.53;3.07;;;;;;;5.89;43.81;95371.73;1795122;80;21078;-71
2022/04/18 10:13:10;;;;;;;6.47;3.73;;;;;;;5.79;42.71;95363.48;1795488;80;20983;-72
2022/04/18 10:15:42;;;;;;;17.63;8.03;;;;;;;5.92;43.83;95352.11;1795592;80;21464;-72
2022/04/18 10:18:12;;;;;;;2.20;1.80;;;;;;;6.05;46.89;95353.81;1795319;80;21532;-72
2022/04/18 10:21:04;;;;;;;28.37;13.67;;;;;;;6.22;44.41;95351.53;1795265;80;21122;-73
2022/04/18 10:24:09;;;;;;;13.30;6.70;;;;;;;6.31;42.88;95344.08;1795339;80;21018;-72
2022/04/18 10:26:43;;;;;;;;;;;;;;;6.37;42.83;95337.02;1797753;80;21520;-72
2022/04/18 10:29:26;;;;;;;3.55;2.87;;;;;;;6.48;42.73;95329.98;1764499;81;20142;-72
2022/04/18 10:31:53;;;;;;;19.45;7.87;;;;;;;6.79;42.00;95328.42;1795237;80;21102;-72
2022/04/18 10:34:24;;;;;;;12.70;6.60;;;;;;;7.11;44.60;95329.46;1795449;80;21045;-72
2022/04/18 10:36:56;;;;;;;1.33;1.10;;;;;;;7.37;42.23;95323.08;1795584;80;20975;-72
2022/04/18 10:39:23;;;;;;;1.53;1.23;;;;;;;7.59;39.60;95314.53;1795428;80;21010;-72
2022/04/18 10:41:53;;;;;;;0.80;0.80;;;;;;;7.84;38.07;95310.27;1790455;80;21010;-71
2022/04/18 10:44:20;;;;;;;1.40;1.13;;;;;;;8.36;37.57;95308.27;1795459;80;21015;-72
2022/04/18 10:46:55;;;;;;;1.53;1.00;;;;;;;8.90;36.60;95299.59;1795451;80;20971;-71
2022/04/18 10:49:24;;;;;;;1.20;1.10;;;;;;;9.21;34.73;95293.33;1795544;80;20999;-70
2022/04/18 10:51:53;;;;;;;1.40;1.20;;;;;;;9.86;37.08;95295.13;1794587;80;21551;-70
2022/04/18 10:54:23;;;;;;;1.60;1.40;;;;;;;10.25;36.88;95283.30;1795490;80;21002;-70
2022/04/18 10:56:57;;;;;;;2.33;1.40;;;;;;;10.37;32.87;95284.39;1795602;80;21014;-69
2022/04/18 10:59:31;;;;;;;1.37;1.23;;;;;;;10.38;31.97;95283.92;1795409;80;21477;-70
2022/04/18 11:02:01;;;;;;;1.37;1.20;;;;;;;10.52;31.49;95278.34;1795247;80;21041;-70
2022/04/18 11:04:41;;;;;;;1.23;1.13;;;;;;;10.66;30.68;95276.69;1762357;80;21576;-69
2022/04/18 11:07:10;;;;;;;2.50;1.50;;;;;;;10.40;29.74;95267.63;1753726;80;21070;-69
2022/04/18 11:09:41;;;;;;;1.43;1.30;;;;;;;10.59;33.40;95269.39;1787195;80;21034;-70
2022/04/18 11:12:17;;;;;;;1.67;1.30;;;;;;;10.82;32.56;95267.51;1786864;80;21469;-69
2022/04/18 11:15:03;;;;;;;1.83;1.30;;;;;;;10.96;31.90;95268.04;1786963;80;20987;-70
2022/04/18 11:17:35;;;;;;;1.30;1.13;;;;;;;11.00;30.83;95262.22;1786337;80;21461;-69
2022/04/18 11:20:35;;;;;;;1.53;1.40;;;;;;;10.98;31.02;95264.02;1786945;80;21505;-69
2022/04/18 11:23:27;;;;;;;2.53;1.30;;;;;;;10.59;29.49;95256.20;1787230;80;20983;-70
2022/04/18 11:26:00;;;;;;;3.85;2.37;;;;;;;10.83;27.86;95252.08;1787159;80;21515;-70
2022/04/18 11:28:42;;;;;;;2.77;1.40;;;;;;;10.89;28.34;95244.48;1787150;80;20951;-69
2022/04/18 11:31:12;;;;;;;3.60;1.98;;;;;;;11.47;27.60;95243.79;1787069;80;20967;-69
2022/04/18 11:33:42;;;;;;;3.10;1.62;;;;;;;11.83;29.70;95238.83;1787189;80;21063;-69
2022/04/18 11:36:10;;;;;;;5.33;4.58;;;;;;;12.24;27.83;95239.39;1787055;80;21011;-69
2022/04/18 11:38:37;;;;;;;2.00;1.42;;;;;;;12.09;30.10;95238.94;1787026;80;21543;-69
2022/04/18 11:41:13;;;;;;;1.75;1.37;;;;;;;12.24;30.82;95231.45;1786684;80;21015;-69
2022/04/18 11:43:41;;;;;;;1.35;1.20;;;;;;;12.46;29.36;95240.92;1787224;80;20995;-69
2022/04/18 11:46:09;;;;;;;3.72;2.50;;;;;;;13.03;26.66;95234.64;1787171;80;20995;-69
2022/04/18 11:48:37;;;;;;;2.52;2.10;;;;;;;13.43;25.40;95235.95;1787131;80;21018;-69
2022/04/18 11:51:05;;;;;;;13.20;4.92;;;;;;;13.66;24.81;95223.63;1786794;80;21118;-69
2022/04/18 11:53:34;;;;;;;9.18;4.70;;;;;;;12.90;26.85;95234.19;1787046;80;21003;-70
2022/04/18 11:56:05;;;;;;;2.12;1.50;;;;;;;12.12;28.30;95237.55;1786751;80;20998;-69
2022/04/18 11:58:37;;;;;;;2.05;1.10;;;;;;;11.53;29.01;95240.11;1787004;80;21472;-69
2022/04/18 12:06:46;;;;;;;1.35;1.12;;;;;;;10.48;29.33;95245.02;1794990;80;21034;-69
2022/04/18 12:09:16;;;;;;;1.30;1.20;;;;;;;10.22;29.79;95243.83;1795515;80;21006;-69
2022/04/18 12:11:43;;;;;;;1.40;1.30;;;;;;;9.82;31.45;95247.34;1795280;80;21013;-68
2022/04/18 12:14:10;;;;;;;2.07;1.20;;;;;;;9.49;31.81;95248.45;1795357;80;21054;-69
2022/04/18 12:16:39;;;;;;;2.17;1.37;;;;;;;9.31;32.41;95258.03;1794766;80;20991;-69
2022/04/18 12:19:11;;;;;;;1.37;1.20;;;;;;;9.02;32.59;95251.56;1795423;80;21025;-69
2022/04/18 12:21:38;;;;;;;1.77;1.37;;;;;;;8.90;33.50;95258.80;1796070;80;21070;-69
2022/04/18 12:24:05;;;;;;;2.63;1.43;;;;;;;8.82;32.74;95249.70;1795400;80;21018;-69